Horn Island Airport

Airport
ICAO code: 
YHID
IATA Code: 
HID
Summary
ICAO Region: 
APAC
Territory: 
Location: 
, Queensland
Serving: 
Horn Island
Elevation: 
43 ft
Coordinates: 
Aerial View: 
10° 35' 11.04" S, 142° 17' 24" E
Metar
Observation
YHID 020830Z AUTO 12008KT 9999 // SCT021 30/25 Q1007 RF00.0/000.2
Station
HORN ISLAND
Date/Time
2021-12-02 08:30:00
Wind direction
120°
Wind speed
08 kts
Lowest cloud amount
scattered clouds
Temperature
30°C
Dew point
25°C
Humidity
74%
QNH
1007 hPa
Weather condition
n/a

Runways

Designator Length Width Surface Rops
14/32 1235 23 ASP No/No
8/26 1389 30 ASP No/No
Airport map: 
Aerial View: 

Accidents and Serious Incidents at or in the vicinity of YHID

SKYbrary Partners:

Safety knowledge contributed by: